createdAt,value
2022-08-11T00:00:37.678Z,64.60
2022-08-11T00:03:09.643Z,64.85
2022-08-11T00:05:52.027Z,65.12
2022-08-11T00:08:27.843Z,65.48
2022-08-11T00:11:01.163Z,65.40
2022-08-11T00:13:37.043Z,65.56
2022-08-11T00:16:11.183Z,65.33
2022-08-11T00:18:43.641Z,65.44
2022-08-11T00:21:12.063Z,65.42
2022-08-11T00:23:44.618Z,65.50
2022-08-11T00:26:13.425Z,65.49
2022-08-11T00:28:41.767Z,65.73
2022-08-11T00:31:11.514Z,65.79
2022-08-11T00:33:44.672Z,66.00
2022-08-11T00:36:16.512Z,66.32
2022-08-11T00:38:45.694Z,66.60
2022-08-11T00:41:59.132Z,66.71
2022-08-11T00:45:18.279Z,67.13
2022-08-11T00:48:07.803Z,67.17
2022-08-11T00:51:09.068Z,67.34
2022-08-11T00:54:23.720Z,66.79
2022-08-11T00:57:36.942Z,67.00
2022-08-11T01:00:23.429Z,67.11
2022-08-11T01:03:39.167Z,67.07
2022-08-11T01:06:33.036Z,66.62
2022-08-11T01:09:37.690Z,66.87
2022-08-11T01:12:44.142Z,67.00
2022-08-11T01:19:03.118Z,66.83
2022-08-11T01:22:00.783Z,67.62
2022-08-11T02:04:36.604Z,66.96
2022-08-11T02:11:18.182Z,67.98
2022-08-11T02:14:12.619Z,67.94
2022-08-11T02:17:00.646Z,67.53
2022-08-11T02:20:10.929Z,67.48
2022-08-11T02:24:03.793Z,67.93
2022-08-11T02:26:23.483Z,67.46
2022-08-11T02:29:18.003Z,67.02
2022-08-11T02:32:33.879Z,67.95
2022-08-11T02:35:22.911Z,67.71
2022-08-11T02:38:14.281Z,67.89
2022-08-11T02:41:31.210Z,67.41
2022-08-11T02:44:24.772Z,68.17
2022-08-11T02:47:15.081Z,67.58
2022-08-11T02:50:09.371Z,67.79
2022-08-11T02:53:03.851Z,68.09
2022-08-11T02:55:48.826Z,67.92
2022-08-11T02:59:20.346Z,68.03
2022-08-11T03:02:04.598Z,67.82
2022-08-11T03:04:49.909Z,67.97
2022-08-11T03:07:46.117Z,67.90
2022-08-11T03:11:26.625Z,68.16
2022-08-11T03:14:44.070Z,68.55
2022-08-11T03:17:24.838Z,68.63
2022-08-11T03:20:24.150Z,68.10
2022-08-11T03:23:19.407Z,68.17
2022-08-11T03:25:55.793Z,69.04
2022-08-11T03:28:37.539Z,69.38
2022-08-11T03:31:19.299Z,69.01
2022-08-11T03:34:07.312Z,68.89
2022-08-11T03:37:06.797Z,69.01
2022-08-11T03:40:13.674Z,69.19
2022-08-11T03:43:09.356Z,69.36
2022-08-11T03:45:49.992Z,69.76
2022-08-11T03:48:54.792Z,69.45
2022-08-11T03:51:56.469Z,69.61
2022-08-11T03:55:08.563Z,69.22
2022-08-11T03:58:41.841Z,69.51
2022-08-11T04:01:53.234Z,69.87
2022-08-11T04:08:39.357Z,69.93
2022-08-11T04:40:51.272Z,69.60
2022-08-11T04:50:13.443Z,70.43
2022-08-11T04:53:27.368Z,70.11
2022-08-11T04:56:29.547Z,70.17
2022-08-11T04:59:52.268Z,69.60
2022-08-11T05:02:52.588Z,70.07
2022-08-11T05:05:56.219Z,69.85
2022-08-11T05:08:54.339Z,69.61
2022-08-11T05:11:31.807Z,69.08
2022-08-11T05:14:52.149Z,69.60
2022-08-11T05:18:06.663Z,69.53
2022-08-11T05:21:05.122Z,69.39
2022-08-11T05:23:54.272Z,69.59
2022-08-11T05:26:46.567Z,69.33
2022-08-11T05:29:57.818Z,69.43
2022-08-11T05:32:47.259Z,68.87
2022-08-11T05:36:00.395Z,69.80
2022-08-11T05:38:28.068Z,69.58
2022-08-11T05:41:15.371Z,69.30
2022-08-11T05:44:21.174Z,69.41
2022-08-11T05:47:08.847Z,70.13
2022-08-11T05:49:55.546Z,69.64
2022-08-11T05:52:46.806Z,69.51
2022-08-11T05:55:34.460Z,69.79
2022-08-11T05:58:07.262Z,69.86
2022-08-11T06:00:43.403Z,68.55
2022-08-11T06:03:11.068Z,68.40
2022-08-11T06:05:43.895Z,69.10
2022-08-11T06:08:12.668Z,68.23
2022-08-11T06:10:44.284Z,68.76
2022-08-11T06:13:16.102Z,67.90
2022-08-11T06:15:50.811Z,67.32
2022-08-11T06:18:19.056Z,67.25
2022-08-11T06:20:55.026Z,67.37
2022-08-11T06:23:23.930Z,66.30
2022-08-11T06:25:52.840Z,65.59
2022-08-11T06:28:32.704Z,65.12
2022-08-11T06:31:00.565Z,65.24
2022-08-11T06:33:48.136Z,63.90
2022-08-11T06:36:31.558Z,64.54
2022-08-11T06:40:09.235Z,63.47
2022-08-11T06:42:57.167Z,63.47
2022-08-11T06:45:42.412Z,63.64
2022-08-11T06:48:17.489Z,63.62
2022-08-11T06:51:12.824Z,63.56
2022-08-11T06:54:04.233Z,64.12
2022-08-11T06:57:28.283Z,63.31
2022-08-11T07:00:06.073Z,63.40
2022-08-11T07:02:52.571Z,62.48
2022-08-11T07:05:45.683Z,62.29
2022-08-11T07:09:17.935Z,62.92
2022-08-11T07:12:49.119Z,62.84
2022-08-11T07:16:11.010Z,63.09
2022-08-11T07:18:53.613Z,60.81
2022-08-11T07:22:00.989Z,60.78
2022-08-11T07:24:59.415Z,60.41
2022-08-11T07:27:56.011Z,60.11
2022-08-11T07:30:25.055Z,60.23
2022-08-11T07:32:54.916Z,60.19
2022-08-11T07:35:50.044Z,58.85
2022-08-11T07:38:25.291Z,58.36
2022-08-11T07:40:52.859Z,59.81
2022-08-11T07:43:19.768Z,59.46
2022-08-11T07:46:05.356Z,59.33
2022-08-11T07:48:53.275Z,58.94
2022-08-11T07:51:40.149Z,59.13
2022-08-11T07:54:16.310Z,57.36
2022-08-11T07:56:55.193Z,58.07
2022-08-11T08:00:03.739Z,58.55
2022-08-11T08:02:51.059Z,57.88
2022-08-11T08:05:37.210Z,58.12
2022-08-11T08:08:27.995Z,58.35
2022-08-11T08:11:15.220Z,57.79
2022-08-11T08:14:04.380Z,58.37
2022-08-11T08:16:50.053Z,57.15
2022-08-11T08:19:20.724Z,56.92
2022-08-11T08:21:48.456Z,57.77
2022-08-11T08:24:16.279Z,57.72
2022-08-11T08:26:59.528Z,56.84
2022-08-11T08:29:53.240Z,56.80
2022-08-11T08:32:21.975Z,56.83
2022-08-11T08:34:59.799Z,56.42
2022-08-11T08:37:45.756Z,56.20
2022-08-11T08:40:19.151Z,56.62
2022-08-11T08:43:10.617Z,55.52
2022-08-11T08:45:39.589Z,56.16
2022-08-11T08:48:13.956Z,57.22
2022-08-11T08:51:08.071Z,55.15
2022-08-11T08:53:39.141Z,56.23
2022-08-11T08:56:25.203Z,55.07
2022-08-11T08:58:52.664Z,55.51
2022-08-11T09:01:22.439Z,55.74
2022-08-11T09:04:05.151Z,55.83
2022-08-11T09:06:40.567Z,55.03
2022-08-11T09:09:12.201Z,55.10
2022-08-11T09:11:55.465Z,55.64
2022-08-11T09:14:50.273Z,55.65
2022-08-11T09:17:21.637Z,55.83
2022-08-11T09:19:58.715Z,54.51
2022-08-11T09:22:46.101Z,54.20
2022-08-11T09:25:35.037Z,53.24
2022-08-11T09:28:05.025Z,52.65
2022-08-11T09:30:33.111Z,52.31
2022-08-11T09:33:02.370Z,52.26
2022-08-11T09:35:34.582Z,53.16
2022-08-11T09:38:20.021Z,51.92
2022-08-11T09:40:56.356Z,51.28
2022-08-11T09:43:44.054Z,51.91
2022-08-11T09:46:19.324Z,50.91
2022-08-11T09:48:48.580Z,51.73
2022-08-11T09:51:17.296Z,49.25
2022-08-11T09:53:47.088Z,49.95
2022-08-11T09:56:49.408Z,49.16
2022-08-11T09:59:20.535Z,50.21
2022-08-11T10:01:59.028Z,49.65
2022-08-11T10:04:41.316Z,49.18
2022-08-11T10:07:10.895Z,48.65
2022-08-11T10:10:02.359Z,49.50
2022-08-11T10:12:40.922Z,49.70
2022-08-11T10:15:34.833Z,49.31
2022-08-11T10:18:26.977Z,49.40
2022-08-11T10:21:00.233Z,48.99
2022-08-11T10:24:00.381Z,47.61
2022-08-11T10:27:11.593Z,47.25
2022-08-11T10:29:59.705Z,48.51
2022-08-11T10:32:57.365Z,48.69
2022-08-11T10:35:28.880Z,46.03
2022-08-11T10:38:06.806Z,45.33
2022-08-11T10:40:39.009Z,46.25
2022-08-11T10:43:10.712Z,47.77
2022-08-11T10:45:59.127Z,46.93
2022-08-11T10:48:30.517Z,48.38
2022-08-11T10:51:50.523Z,47.89
2022-08-11T10:54:24.462Z,48.47
2022-08-11T10:57:12.862Z,47.53
2022-08-11T10:59:43.291Z,46.96
2022-08-11T11:02:14.860Z,46.13
2022-08-11T11:05:15.404Z,47.47
2022-08-11T11:07:57.085Z,46.71
2022-08-11T11:10:25.383Z,47.52
2022-08-11T11:13:15.351Z,46.17
2022-08-11T11:16:05.148Z,45.62
2022-08-11T11:18:36.680Z,45.42
2022-08-11T11:21:07.623Z,46.58
2022-08-11T11:24:14.777Z,46.61
2022-08-11T11:27:04.874Z,45.94
2022-08-11T11:29:49.859Z,44.53
2022-08-11T11:33:05.686Z,44.18
2022-08-11T11:35:47.164Z,45.87
2022-08-11T11:38:14.262Z,44.83
2022-08-11T11:40:44.530Z,45.61
2022-08-11T11:43:14.210Z,45.87
2022-08-11T11:45:42.199Z,44.58
2022-08-11T11:48:09.484Z,45.15
2022-08-11T11:50:39.292Z,44.34
2022-08-11T11:53:09.684Z,44.99
2022-08-11T11:55:40.022Z,44.19
2022-08-11T11:58:26.415Z,44.78
2022-08-11T12:01:15.493Z,43.26
2022-08-11T12:03:45.563Z,44.72
2022-08-11T12:06:14.361Z,42.16
2022-08-11T12:08:43.402Z,45.33
2022-08-11T12:11:31.435Z,44.65
2022-08-11T12:14:02.368Z,45.30
2022-08-11T12:16:33.300Z,44.11
2022-08-11T12:19:08.039Z,43.31
2022-08-11T12:21:44.753Z,43.57
2022-08-11T12:24:37.740Z,43.92
2022-08-11T12:27:28.577Z,43.22
2022-08-11T12:30:05.954Z,42.62
2022-08-11T12:32:35.192Z,43.19
2022-08-11T12:35:02.310Z,44.38
2022-08-11T12:37:32.820Z,43.85
2022-08-11T12:40:49.983Z,43.37
2022-08-11T12:43:41.451Z,42.57
2022-08-11T12:46:14.300Z,40.85
2022-08-11T12:49:11.120Z,43.46
2022-08-11T12:52:00.969Z,43.48
2022-08-11T12:55:13.001Z,42.74
2022-08-11T12:58:03.968Z,42.36
2022-08-11T13:00:50.510Z,42.49
2022-08-11T13:03:38.922Z,40.11
2022-08-11T13:06:06.754Z,42.50
2022-08-11T13:08:37.916Z,40.75
2022-08-11T13:11:23.807Z,43.10
2022-08-11T13:13:57.545Z,43.52
2022-08-11T13:16:57.574Z,41.78
2022-08-11T13:19:25.213Z,41.11
2022-08-11T13:21:53.311Z,41.95
2022-08-11T13:24:21.759Z,42.29
2022-08-11T13:26:50.876Z,40.55
2022-08-11T13:29:28.835Z,40.92
2022-08-11T13:32:00.807Z,42.01
2022-08-11T13:34:31.274Z,41.84
2022-08-11T13:37:01.052Z,42.74
2022-08-11T13:39:32.189Z,40.24
2022-08-11T13:42:00.847Z,40.73
2022-08-11T13:44:30.365Z,41.37
2022-08-11T13:47:07.449Z,39.84
2022-08-11T13:49:39.734Z,40.19
2022-08-11T13:52:13.052Z,41.31
2022-08-11T13:54:41.614Z,42.20
2022-08-11T13:58:05.987Z,38.41
2022-08-11T14:00:23.597Z,38.95
2022-08-11T14:02:56.755Z,39.30
2022-08-11T14:05:28.630Z,41.72
2022-08-11T14:07:59.852Z,40.76
2022-08-11T14:10:29.591Z,41.67
2022-08-11T14:13:42.761Z,40.99
2022-08-11T14:16:19.787Z,38.53
2022-08-11T14:18:51.528Z,40.39
2022-08-11T14:21:40.172Z,40.52
2022-08-11T14:24:07.823Z,40.77
2022-08-11T14:26:38.972Z,40.33
2022-08-11T14:29:17.832Z,38.86
2022-08-11T14:31:57.498Z,39.17
2022-08-11T14:34:26.964Z,39.51
2022-08-11T14:36:56.836Z,37.94
2022-08-11T14:39:29.082Z,38.66
2022-08-11T14:42:15.630Z,38.49
2022-08-11T14:45:23.383Z,38.94
2022-08-11T14:47:53.176Z,37.69
2022-08-11T14:50:25.879Z,36.19
2022-08-11T14:52:59.884Z,38.02
2022-08-11T14:55:50.723Z,38.44
2022-08-11T14:58:19.850Z,38.32
2022-08-11T15:00:50.045Z,38.50
2022-08-11T15:03:17.924Z,39.98
2022-08-11T15:05:57.089Z,39.18
2022-08-11T15:08:51.951Z,38.42
2022-08-11T15:11:40.210Z,39.49
2022-08-11T15:14:08.879Z,38.49
2022-08-11T15:16:58.787Z,39.36
2022-08-11T15:19:26.163Z,39.80
2022-08-11T15:22:11.418Z,39.83
2022-08-11T15:24:38.601Z,41.07
2022-08-11T15:27:30.211Z,39.63
2022-08-11T15:30:20.945Z,37.75
2022-08-11T15:33:23.229Z,39.68
2022-08-11T15:36:09.973Z,39.22
2022-08-11T15:38:42.526Z,38.83
2022-08-11T15:41:32.063Z,39.14
2022-08-11T15:44:20.843Z,39.13
2022-08-11T15:47:09.125Z,40.03
2022-08-11T15:50:11.813Z,39.84
2022-08-11T15:52:31.847Z,39.64
2022-08-11T15:55:02.211Z,39.23
2022-08-11T15:57:49.393Z,40.55
2022-08-11T16:00:35.738Z,40.05
2022-08-11T16:03:24.269Z,40.71
2022-08-11T16:06:13.491Z,40.70
2022-08-11T16:08:43.263Z,40.48
2022-08-11T16:11:12.109Z,40.46
2022-08-11T16:13:57.847Z,40.66
2022-08-11T16:16:25.628Z,38.65
2022-08-11T16:18:56.629Z,39.46
2022-08-11T16:21:35.181Z,39.76
2022-08-11T16:24:09.635Z,39.76
2022-08-11T16:27:09.615Z,39.80
2022-08-11T16:29:44.572Z,40.11
2022-08-11T16:32:18.762Z,40.06
2022-08-11T16:35:07.470Z,40.57
2022-08-11T16:38:08.815Z,40.08
2022-08-11T16:40:36.946Z,39.79
2022-08-11T16:43:36.963Z,39.92
2022-08-11T16:46:24.446Z,40.69
2022-08-11T16:48:55.181Z,39.94
2022-08-11T16:51:23.052Z,41.39
2022-08-11T16:54:04.316Z,40.83
2022-08-11T16:56:53.153Z,41.29
2022-08-11T16:59:45.596Z,40.77
2022-08-11T17:02:35.607Z,41.03
2022-08-11T17:05:26.219Z,40.77
2022-08-11T17:08:13.367Z,41.25
2022-08-11T17:11:11.712Z,42.02
2022-08-11T17:13:57.070Z,41.63
2022-08-11T17:16:39.906Z,41.70
2022-08-11T17:20:41.399Z,42.46
2022-08-11T17:22:28.648Z,42.20
2022-08-11T17:24:57.175Z,42.45
2022-08-11T17:27:27.568Z,42.33
2022-08-11T17:29:58.184Z,42.84
2022-08-11T17:33:08.251Z,43.03
2022-08-11T17:35:41.543Z,42.97
2022-08-11T17:38:15.897Z,43.45
2022-08-11T17:41:10.088Z,42.97
2022-08-11T17:44:04.695Z,43.72
2022-08-11T17:46:50.674Z,43.49
2022-08-11T17:49:20.409Z,43.41
2022-08-11T17:52:07.703Z,43.55
2022-08-11T17:54:55.483Z,43.93
2022-08-11T17:57:47.054Z,44.11
2022-08-11T18:00:15.022Z,44.08
2022-08-11T18:03:03.592Z,43.98
2022-08-11T18:05:34.087Z,44.74
2022-08-11T18:08:25.891Z,44.84
2022-08-11T18:11:13.151Z,44.40
2022-08-11T18:14:10.495Z,45.36
2022-08-11T18:16:56.181Z,44.87
2022-08-11T18:19:41.346Z,45.35
2022-08-11T18:22:36.582Z,45.24
2022-08-11T18:25:27.475Z,45.38
2022-08-11T18:28:14.319Z,45.50
2022-08-11T18:31:04.639Z,45.83
2022-08-11T18:34:08.159Z,45.99
2022-08-11T18:36:59.279Z,45.81
2022-08-11T18:39:56.052Z,46.37
2022-08-11T18:42:43.653Z,45.48
2022-08-11T18:45:39.978Z,45.86
2022-08-11T18:48:37.538Z,45.58
2022-08-11T18:51:30.111Z,45.94
2022-08-11T18:54:25.899Z,45.73
2022-08-11T18:57:12.876Z,45.47
2022-08-11T19:00:02.379Z,45.74
2022-08-11T19:02:50.776Z,46.19
2022-08-11T19:06:32.420Z,45.46
2022-08-11T19:08:50.283Z,45.92
2022-08-11T19:11:42.481Z,46.44
2022-08-11T19:14:31.317Z,46.62
2022-08-11T19:17:43.996Z,46.37
2022-08-11T19:20:30.148Z,47.01
2022-08-11T19:23:17.027Z,48.20
2022-08-11T19:26:05.038Z,47.63
2022-08-11T19:28:52.921Z,48.05
2022-08-11T19:31:42.491Z,48.87
2022-08-11T19:34:33.479Z,49.28
2022-08-11T19:37:23.726Z,48.99
2022-08-11T19:40:12.649Z,49.23
2022-08-11T19:43:00.468Z,49.48
2022-08-11T19:45:52.110Z,49.51
2022-08-11T19:48:40.982Z,49.51
2022-08-11T19:51:28.411Z,49.31
2022-08-11T19:54:15.069Z,49.51
2022-08-11T19:57:01.493Z,49.39
2022-08-11T19:59:48.644Z,49.79
2022-08-11T20:02:34.221Z,49.82
2022-08-11T20:05:20.018Z,50.70
2022-08-11T20:08:06.698Z,50.74
2022-08-11T20:10:54.790Z,51.39
2022-08-11T20:13:42.548Z,50.72
2022-08-11T20:16:30.847Z,51.00
2022-08-11T20:19:17.160Z,50.77
2022-08-11T20:22:08.225Z,50.86
2022-08-11T20:24:57.186Z,51.38
2022-08-11T20:27:43.597Z,51.45
2022-08-11T20:30:29.452Z,51.56
2022-08-11T20:33:15.344Z,51.81
2022-08-11T20:36:00.807Z,51.97
2022-08-11T20:38:49.720Z,51.89
2022-08-11T20:41:58.907Z,52.17
2022-08-11T20:44:43.606Z,52.80
2022-08-11T20:47:30.624Z,52.80
2022-08-11T20:50:19.452Z,52.49
2022-08-11T20:53:07.044Z,52.43
2022-08-11T20:55:53.663Z,52.36
2022-08-11T20:59:13.460Z,52.36
2022-08-11T21:01:47.232Z,52.63
2022-08-11T21:04:37.780Z,52.51
2022-08-11T21:07:41.366Z,52.23
2022-08-11T21:10:29.192Z,53.46
2022-08-11T21:13:26.554Z,52.57
2022-08-11T21:16:26.128Z,52.92
2022-08-11T21:20:00.534Z,52.78
2022-08-11T21:22:59.314Z,52.66
2022-08-11T21:26:01.303Z,53.08
2022-08-11T21:28:50.121Z,53.19
2022-08-11T21:31:37.431Z,53.36
2022-08-11T21:34:22.950Z,53.62
2022-08-11T21:37:10.957Z,53.86
2022-08-11T21:39:59.157Z,53.96
2022-08-11T21:42:46.676Z,54.17
2022-08-11T21:45:33.228Z,54.08
2022-08-11T21:48:19.852Z,54.55
2022-08-11T21:51:04.907Z,55.21
2022-08-11T21:53:50.891Z,55.29
2022-08-11T21:56:37.366Z,55.10
2022-08-11T21:59:24.081Z,54.97
2022-08-11T22:02:12.917Z,55.32
2022-08-11T22:04:59.173Z,55.32
2022-08-11T22:07:44.857Z,55.18
2022-08-11T22:10:42.474Z,55.56
2022-08-11T22:13:30.796Z,55.14
2022-08-11T22:16:17.780Z,56.06
2022-08-11T22:19:05.360Z,55.28
2022-08-11T22:21:57.029Z,55.76
2022-08-11T22:24:51.437Z,56.01
2022-08-11T22:27:36.826Z,56.31
2022-08-11T22:30:25.259Z,56.31
2022-08-11T22:33:11.699Z,56.83
2022-08-11T22:36:00.994Z,56.82
2022-08-11T22:38:47.345Z,56.34
2022-08-11T22:41:32.685Z,56.40
2022-08-11T22:44:17.838Z,57.22
2022-08-11T22:47:04.144Z,57.24
2022-08-11T22:49:56.219Z,57.85
2022-08-11T22:52:44.386Z,58.09
2022-08-11T22:55:31.232Z,58.39
2022-08-11T22:58:17.170Z,58.47
2022-08-11T23:01:02.971Z,58.68
2022-08-11T23:03:50.112Z,59.25
2022-08-11T23:06:37.528Z,59.68
2022-08-11T23:09:23.748Z,59.58
2022-08-11T23:12:10.815Z,59.67
2022-08-11T23:14:58.459Z,59.90
2022-08-11T23:17:45.203Z,59.92
2022-08-11T23:20:37.758Z,60.42
2022-08-11T23:23:38.326Z,60.45
2022-08-11T23:26:25.144Z,60.75
2022-08-11T23:29:12.936Z,60.37
2022-08-11T23:31:58.373Z,60.20
2022-08-11T23:35:04.342Z,60.35
2022-08-11T23:37:59.863Z,61.83
2022-08-11T23:40:45.428Z,61.99
2022-08-11T23:43:39.383Z,61.95
2022-08-11T23:46:24.702Z,61.85
2022-08-11T23:49:14.127Z,61.27
2022-08-11T23:52:00.365Z,61.57
2022-08-11T23:54:46.424Z,61.34
2022-08-11T23:57:31.869Z,61.80
